KCLS/CLS METAR and TAF weather

Enter ICAO airport designator
Station Type Date Time Source
KCLS METAR 2019/06/26 18:35 UTC NOAA

KCLS 261835Z AUTO 00000KT 10SM FEW110 19/12 A2988 RMK AO2


Station Type Date Time Source
KCLS Decoded METAR 2019/06/26 18:35 UTC NOAA

Station name not available
Jun 26, 2019 - 02:35 PM EDT / 2019.06.26 1835 UTC
Wind: Calm:0
Visibility: 10 mile(s):0
Sky conditions: mostly clear
Temperature: 66 F (19 C)
Dew Point: 53 F (12 C)
Relative Humidity: 63%
Pressure (altimeter): 29.88 in. Hg (1011 hPa)
ob: KCLS 261835Z AUTO 00000KT 10SM FEW110 19/12 A2988 RMK AO2
cycle: 18

Station Type Date Time Source
KCLS TAF UTC NOAA

Error!

Example: see airport list